Time;durP1;ratioP1;P1;durP2;ratioP2;P2;SDS_P1;SDS_P2;PMS_P1;PMS_P2;Temp;Humidity;BMP_temperature;BMP_pressure;BME280_temperature;BME280_humidity;BME280_pressure;Samples;Min_cycle;Max_cycle;Signal;HPM_P1;HPM_P2
2023/07/03 00:00:42;;;;;;;28.90;14.38;;;;;;;22.62;60.26;100555.28;4987727;28;20452;-76
2023/07/03 00:03:08;;;;;;;23.10;13.23;;;;;;;22.55;60.28;100550.06;4991293;28;20945;-76
2023/07/03 00:05:35;;;;;;;25.38;13.18;;;;;;;22.52;60.38;100548.69;4993578;28;20393;-77
2023/07/03 00:08:00;;;;;;;26.33;14.23;;;;;;;22.48;60.55;100550.28;4989713;28;20389;-76
2023/07/03 00:10:26;;;;;;;23.17;12.43;;;;;;;22.46;60.63;100551.59;4988181;28;20823;-76
2023/07/03 00:12:51;;;;;;;22.77;11.70;;;;;;;22.48;60.50;100554.88;4991738;28;20480;-76
2023/07/03 00:15:17;;;;;;;22.17;11.50;;;;;;;22.45;60.58;100558.88;4991611;28;20409;-76
2023/07/03 00:17:45;;;;;;;26.10;11.63;;;;;;;22.44;60.81;100557.25;4991424;28;20412;-76
2023/07/03 00:20:14;;;;;;;22.63;11.48;;;;;;;22.49;60.71;100570.81;4991939;28;20397;-76
2023/07/03 00:22:41;;;;;;;23.35;12.45;;;;;;;22.40;60.74;100568.81;4991722;28;20465;-76
2023/07/03 00:25:07;;;;;;;24.83;11.35;;;;;;;22.26;61.27;100563.78;4974359;28;20482;-75
2023/07/03 00:27:32;;;;;;;20.15;10.85;;;;;;;22.31;60.96;100571.97;4992664;28;20455;-77
2023/07/03 00:29:58;;;;;;;22.67;10.43;;;;;;;22.28;61.00;100567.06;4993182;28;20370;-77
2023/07/03 00:32:24;;;;;;;22.60;11.07;;;;;;;22.31;61.03;100571.97;4993350;28;20392;-76
2023/07/03 00:34:49;;;;;;;26.03;10.77;;;;;;;22.23;61.25;100579.66;4993277;28;20382;-76
2023/07/03 00:37:15;;;;;;;25.05;10.80;;;;;;;22.22;61.39;100580.69;4992820;28;20377;-77
2023/07/03 00:39:41;;;;;;;30.77;11.63;;;;;;;22.15;61.47;100576.31;4992766;28;20424;-76
2023/07/03 00:42:06;;;;;;;22.80;10.68;;;;;;;22.20;61.37;100577.44;4975733;28;20484;-76
2023/07/03 00:44:32;;;;;;;27.00;11.20;;;;;;;22.22;61.01;100573.44;4991881;28;20385;-76
2023/07/03 00:46:57;;;;;;;25.17;10.95;;;;;;;22.22;61.17;100578.84;4992244;28;20393;-76
2023/07/03 00:49:24;;;;;;;25.83;11.57;;;;;;;22.19;61.06;100579.34;4992547;28;20382;-75
2023/07/03 00:51:53;;;;;;;23.43;10.23;;;;;;;22.20;61.17;100575.59;4992727;28;20415;-77
2023/07/03 00:54:19;;;;;;;22.55;10.13;;;;;;;22.19;60.99;100573.94;4992334;28;20393;-76
2023/07/03 00:56:45;;;;;;;20.10;9.50;;;;;;;22.21;61.24;100585.28;4992428;28;20404;-76
2023/07/03 00:59:10;;;;;;;22.63;9.80;;;;;;;22.20;61.35;100588.25;4991936;28;20473;-76
2023/07/03 01:01:45;;;;;;;25.07;13.40;;;;;;;22.15;61.22;100573.63;4992050;28;20771;-76
2023/07/03 01:04:15;;;;;;;21.75;13.15;;;;;;;22.15;61.29;100583.59;4992960;28;20389;-77
2023/07/03 01:06:50;;;;;;;21.05;13.70;;;;;;;22.14;61.44;100585.47;4992732;28;20743;-77
2023/07/03 01:09:20;;;;;;;18.98;11.73;;;;;;;22.14;61.48;100584.66;4992167;28;20402;-77
2023/07/03 01:11:47;;;;;;;22.08;11.95;;;;;;;22.09;61.33;100581.88;5007661;28;20405;-76
2023/07/03 01:14:17;;;;;;;20.23;11.30;;;;;;;22.06;61.36;100577.81;4991787;28;20390;-77
2023/07/03 01:16:44;;;;;;;26.15;11.20;;;;;;;22.00;61.65;100578.00;4991987;28;20476;-76
2023/07/03 01:19:14;;;;;;;25.23;10.40;;;;;;;21.92;61.92;100577.34;4991941;28;20413;-76
2023/07/03 01:21:58;;;;;;;24.73;11.85;;;;;;;21.93;61.79;100579.00;4991992;28;20540;-76
2023/07/03 01:24:32;;;;;;;26.42;11.82;;;;;;;21.90;61.96;100590.28;4992522;28;20385;-76
2023/07/03 01:27:01;;;;;;;23.02;11.82;;;;;;;21.98;61.76;100588.22;4992191;28;20465;-76
2023/07/03 01:29:28;;;;;;;28.10;13.65;;;;;;;22.04;61.69;100592.63;4991323;28;20464;-76
2023/07/03 01:31:55;;;;;;;24.17;13.45;;;;;;;22.05;61.51;100596.97;4991820;28;20416;-76
2023/07/03 01:34:22;;;;;;;22.98;10.88;;;;;;;22.04;61.49;100590.75;4992001;28;20409;-77
2023/07/03 01:36:49;;;;;;;22.92;11.38;;;;;;;22.10;61.41;100605.13;4991721;28;20420;-76
2023/07/03 01:39:15;;;;;;;22.92;11.90;;;;;;;22.04;61.31;100598.84;4991503;28;20412;-76
2023/07/03 01:41:41;;;;;;;23.73;10.75;;;;;;;22.02;61.26;100597.44;4991707;28;20389;-77
2023/07/03 01:44:06;;;;;;;24.87;11.37;;;;;;;22.07;61.42;100597.53;4991349;28;20386;-77
2023/07/03 01:46:32;;;;;;;21.50;10.80;;;;;;;22.04;61.43;100596.16;4974803;28;20373;-77
2023/07/03 01:48:57;;;;;;;22.77;10.63;;;;;;;21.95;61.39;100590.38;4991502;28;20841;-77
2023/07/03 01:51:37;;;;;;;21.53;9.67;;;;;;;21.96;61.33;100591.16;4991439;28;20417;-77
2023/07/03 01:54:26;;;;;;;25.10;9.45;;;;;;;21.96;61.55;100599.28;4991258;28;20735;-77
2023/07/03 01:56:55;;;;;;;17.38;7.82;;;;;;;21.96;61.64;100597.38;4991276;28;20401;-77
2023/07/03 01:59:24;;;;;;;18.83;8.93;;;;;;;21.95;61.40;100590.38;4990936;28;20409;-77
2023/07/03 02:02:23;;;;;;;23.53;11.00;;;;;;;21.97;61.32;100595.53;4991457;28;20496;-76
2023/07/03 02:05:10;;;;;;;21.70;9.70;;;;;;;22.04;61.07;100606.94;4959859;28;20402;-77
2023/07/03 02:07:39;;;;;;;26.13;10.40;;;;;;;22.01;61.39;100595.84;4991325;28;20443;-76
2023/07/03 02:10:05;;;;;;;19.27;9.13;;;;;;;21.87;61.58;100587.28;4991487;28;20386;-76
2023/07/03 02:12:31;;;;;;;26.17;8.93;;;;;;;21.92;61.64;100600.84;4991163;28;20724;-76
2023/07/03 02:15:02;;;;;;;22.07;9.60;;;;;;;21.96;61.43;100597.38;4974166;28;20472;-77
2023/07/03 02:17:28;;;;;;;24.90;9.13;;;;;;;21.98;61.24;100601.72;4991570;28;20776;-76
2023/07/03 02:19:54;;;;;;;22.55;9.25;;;;;;;21.95;61.46;100600.34;4991414;28;20873;-76
2023/07/03 02:22:20;;;;;;;22.23;9.13;;;;;;;22.00;61.28;100602.28;4991481;28;20853;-76
2023/07/03 02:24:45;;;;;;;21.85;9.80;;;;;;;22.10;61.01;100603.25;4991543;28;20389;-76
2023/07/03 02:27:11;;;;;;;23.70;9.73;;;;;;;22.07;61.10;100602.94;4991238;28;20471;-77
2023/07/03 02:29:36;;;;;;;21.67;9.93;;;;;;;22.03;61.01;100605.31;4991659;28;20875;-76
2023/07/03 02:32:05;;;;;;;24.67;10.23;;;;;;;22.07;60.99;100609.13;4988464;28;21127;-76
2023/07/03 02:34:32;;;;;;;25.27;9.40;;;;;;;22.06;61.11;100609.41;4972183;28;20408;-75
2023/07/03 02:36:58;;;;;;;21.85;8.27;;;;;;;22.11;60.71;100613.00;4970348;28;20876;-76
2023/07/03 02:39:24;;;;;;;29.27;9.77;;;;;;;22.11;60.93;100618.38;4963100;28;20422;-76
2023/07/03 02:41:50;;;;;;;20.23;8.98;;;;;;;22.10;60.63;100618.63;4962067;28;20414;-76
2023/07/03 02:44:15;;;;;;;26.37;9.53;;;;;;;22.12;60.75;100624.59;4970551;28;20443;-76
2023/07/03 02:46:41;;;;;;;21.48;8.77;;;;;;;22.11;60.71;100617.56;4970947;28;20465;-76
2023/07/03 02:49:07;;;;;;;19.92;8.63;;;;;;;22.11;60.68;100618.38;4986249;28;20406;-76
2023/07/03 02:51:33;;;;;;;25.17;9.55;;;;;;;22.10;60.78;100626.72;4970136;28;20465;-75
2023/07/03 02:53:58;;;;;;;24.73;9.83;;;;;;;22.18;60.72;100622.78;4974866;28;20496;-78
2023/07/03 02:56:25;;;;;;;17.83;8.30;;;;;;;22.26;60.28;100622.34;4968823;28;20437;-76
2023/07/03 02:58:50;;;;;;;19.42;8.88;;;;;;;22.26;60.14;100615.09;4988744;28;20414;-77
2023/07/03 03:01:16;;;;;;;21.07;9.27;;;;;;;22.23;60.40;100620.16;4988447;28;20411;-77
2023/07/03 03:03:44;;;;;;;16.17;8.10;;;;;;;22.27;60.23;100624.00;4988738;28;20374;-77
2023/07/03 03:06:10;;;;;;;17.48;7.88;;;;;;;22.30;60.42;100626.22;4988709;28;20386;-76
2023/07/03 03:08:35;;;;;;;19.38;7.78;;;;;;;22.36;60.08;100625.19;4992959;28;20396;-77
2023/07/03 03:11:01;;;;;;;18.57;7.37;;;;;;;22.50;59.87;100631.88;4994002;28;20404;-76
2023/07/03 03:13:26;;;;;;;31.70;17.10;;;;;;;22.53;59.51;100631.38;4994607;28;20382;-76
2023/07/03 03:15:52;;;;;;;30.05;12.82;;;;;;;22.60;59.27;100633.06;4994308;28;20465;-77
2023/07/03 03:18:17;;;;;;;16.00;7.50;;;;;;;;;;4994348;28;20739;-76
2023/07/03 03:20:44;;;;;;;23.33;8.20;;;;;;;22.76;59.18;100634.88;4994081;28;20692;-76
2023/07/03 03:23:10;;;;;;;16.98;7.40;;;;;;;22.86;59.15;100634.97;4994306;28;20389;-76
2023/07/03 03:25:35;;;;;;;22.70;7.90;;;;;;;22.83;58.90;100635.50;4993679;28;20378;-75
2023/07/03 03:28:00;;;;;;;21.30;8.15;;;;;;;22.80;58.95;100632.50;4994268;28;20385;-76
2023/07/03 03:30:26;;;;;;;18.60;7.80;;;;;;;22.74;59.14;100639.69;4994048;28;20877;-76
2023/07/03 03:32:51;;;;;;;19.27;8.13;;;;;;;22.78;58.92;100637.31;4994162;28;20468;-77
2023/07/03 03:35:17;;;;;;;19.80;7.82;;;;;;;22.76;58.91;100637.59;4994381;28;20382;-77
2023/07/03 03:37:42;;;;;;;19.23;7.57;;;;;;;22.81;58.97;100634.91;4994456;28;20409;-77
2023/07/03 03:40:09;;;;;;;21.03;8.10;;;;;;;22.75;58.75;100633.25;4993742;28;20421;-76
2023/07/03 03:42:36;;;;;;;19.27;8.32;;;;;;;22.96;58.68;100638.84;4993822;28;20382;-76
2023/07/03 03:45:02;;;;;;;16.60;7.28;;;;;;;23.07;58.08;100638.75;4993775;28;20386;-76
2023/07/03 03:47:28;;;;;;;26.63;8.70;;;;;;;23.17;57.90;100638.03;4993675;28;20393;-76
2023/07/03 03:49:53;;;;;;;18.38;7.70;;;;;;;23.42;57.53;100647.44;4993703;28;20373;-76
2023/07/03 03:52:19;;;;;;;22.03;8.27;;;;;;;23.48;57.21;100633.72;4993565;28;20398;-76
2023/07/03 03:54:46;;;;;;;23.80;8.38;;;;;;;23.70;57.07;100638.22;4992123;28;20768;-76
2023/07/03 03:57:13;;;;;;;17.63;7.78;;;;;;;23.77;56.95;100641.50;4993621;28;20731;-76
2023/07/03 03:59:39;;;;;;;17.83;8.48;;;;;;;23.85;56.65;100643.75;4993436;28;20413;-76
2023/07/03 04:02:05;;;;;;;16.92;7.65;;;;;;;24.00;56.55;100645.78;4984607;28;20922;-75
2023/07/03 04:04:30;;;;;;;20.48;7.82;;;;;;;24.10;55.92;100644.19;4993299;28;20386;-76
2023/07/03 04:06:56;;;;;;;19.70;8.27;;;;;;;24.16;55.96;100646.66;4993308;28;20861;-77
2023/07/03 04:09:21;;;;;;;22.13;8.30;;;;;;;24.17;55.99;100640.16;4992655;28;20420;-76
2023/07/03 04:11:47;;;;;;;21.25;7.72;;;;;;;24.30;55.55;100640.78;4992039;28;20798;-76
2023/07/03 04:14:12;;;;;;;21.00;8.23;;;;;;;24.49;55.59;100649.25;4993628;28;20428;-76
2023/07/03 04:16:38;;;;;;;20.23;7.70;;;;;;;24.58;55.12;100647.72;4993230;28;20401;-77
2023/07/03 04:19:05;;;;;;;18.55;7.30;;;;;;;24.66;55.04;100641.75;4992837;28;20409;-76
2023/07/03 04:21:30;;;;;;;15.95;7.40;;;;;;;24.70;54.74;100650.97;4977398;28;20397;-78
2023/07/03 04:23:55;;;;;;;19.80;7.60;;;;;;;24.79;54.79;100662.97;4993187;28;20377;-76
2023/07/03 04:26:22;;;;;;;17.60;6.80;;;;;;;24.88;54.38;100652.41;4975585;28;20845;-75
2023/07/03 04:28:48;;;;;;;18.73;7.47;;;;;;;24.97;54.27;100663.53;4992978;28;20398;-75
2023/07/03 04:31:13;;;;;;;15.20;7.03;;;;;;;24.93;54.31;100654.31;4992961;28;20719;-76
2023/07/03 04:33:39;;;;;;;14.85;6.90;;;;;;;25.02;53.97;100652.72;4992759;28;20401;-77
2023/07/03 04:36:04;;;;;;;17.53;7.07;;;;;;;25.09;53.88;100655.16;4992691;28;20480;-76
2023/07/03 04:38:30;;;;;;;20.70;7.23;;;;;;;25.23;53.67;100647.31;4975362;28;20731;-76
2023/07/03 04:40:56;;;;;;;16.85;6.88;;;;;;;25.37;53.45;100659.28;4992445;28;20866;-76
2023/07/03 04:43:22;;;;;;;17.93;6.93;;;;;;;25.48;53.23;100665.53;4992902;28;20897;-76
2023/07/03 04:45:50;;;;;;;17.83;6.70;;;;;;;25.57;53.12;100663.94;4992666;28;20747;-75
2023/07/03 04:48:16;;;;;;;21.95;6.90;;;;;;;25.62;52.89;100652.25;4992706;28;20877;-75
2023/07/03 04:50:46;;;;;;;16.65;6.68;;;;;;;25.78;52.82;100666.63;4992791;28;20541;-77
2023/07/03 04:53:12;;;;;;;20.63;6.93;;;;;;;25.87;52.54;100660.34;4991761;28;20382;-77
2023/07/03 04:55:38;;;;;;;27.08;7.60;;;;;;;25.99;52.29;100670.97;4992084;28;20389;-75
2023/07/03 04:58:04;;;;;;;15.15;6.03;;;;;;;25.98;52.46;100674.75;4992559;28;20405;-76
2023/07/03 05:00:30;;;;;;;19.25;6.20;;;;;;;26.01;51.94;100676.94;4992891;28;20405;-78
2023/07/03 05:02:58;;;;;;;21.27;6.85;;;;;;;26.17;52.12;100669.56;4992504;28;20483;-77
2023/07/03 05:05:25;;;;;;;18.65;6.80;;;;;;;26.21;51.59;100676.09;4992453;28;20477;-76
2023/07/03 05:07:51;;;;;;;19.02;6.53;;;;;;;26.46;51.44;100693.41;4993341;28;20464;-76
2023/07/03 05:10:17;;;;;;;14.20;6.00;;;;;;;26.62;50.80;100684.13;4993080;28;20469;-76
2023/07/03 05:12:44;;;;;;;19.88;6.70;;;;;;;26.70;50.46;100685.44;4993104;28;20888;-78
2023/07/03 05:15:12;;;;;;;19.20;6.20;;;;;;;26.74;49.96;100688.44;4975632;28;20393;-77
2023/07/03 05:17:38;;;;;;;15.30;6.32;;;;;;;26.80;50.61;100690.84;4973343;28;20411;-76
2023/07/03 05:20:22;;;;;;;25.15;7.05;;;;;;;26.99;49.96;100699.19;4979398;28;20401;-76
2023/07/03 05:22:49;;;;;;;16.60;6.15;;;;;;;27.13;49.81;100696.66;4992082;28;20485;-75
2023/07/03 05:25:16;;;;;;;13.13;5.38;;;;;;;27.19;50.18;100700.16;4991923;28;20465;-75
2023/07/03 05:27:42;;;;;;;11.27;5.38;;;;;;;27.22;49.70;100707.75;4991607;28;20502;-75
2023/07/03 05:30:09;;;;;;;14.07;5.03;;;;;;;27.24;49.00;100698.25;4990595;28;20466;-75
2023/07/03 05:32:35;;;;;;;17.87;5.10;;;;;;;26.99;47.63;100704.66;4991545;28;20855;-76
2023/07/03 05:35:03;;;;;;;16.30;5.45;;;;;;;26.99;48.48;100698.38;4991178;28;20401;-75
2023/07/03 05:37:29;;;;;;;15.38;5.53;;;;;;;27.28;48.72;100690.34;4991118;28;20485;-77
2023/07/03 05:39:55;;;;;;;15.50;5.35;;;;;;;27.35;47.71;100704.47;4983772;28;20419;-76
2023/07/03 05:42:21;;;;;;;14.52;5.15;;;;;;;27.21;47.82;100701.50;4986134;28;20720;-76
2023/07/03 05:44:47;;;;;;;21.55;5.78;;;;;;;27.35;47.64;100704.47;4990631;28;20389;-77
2023/07/03 05:47:14;;;;;;;18.25;5.18;;;;;;;27.20;47.54;100715.41;4988136;28;20382;-76
2023/07/03 05:49:40;;;;;;;14.67;5.00;;;;;;;27.32;48.02;100717.81;4982840;28;20396;-76
2023/07/03 05:52:06;;;;;;;16.05;5.03;;;;;;;27.35;47.28;100717.22;4992326;28;20474;-77
2023/07/03 05:54:32;;;;;;;11.82;4.57;;;;;;;27.18;47.31;100712.94;4992992;28;20405;-77
2023/07/03 05:56:59;;;;;;;15.50;5.40;;;;;;;27.31;47.34;100714.25;4974993;28;20386;-78
2023/07/03 05:59:25;;;;;;;14.17;5.10;;;;;;;27.31;47.53;100716.19;4974407;28;20556;-76
2023/07/03 06:01:53;;;;;;;12.13;4.88;;;;;;;27.56;47.05;100715.19;4991670;28;20498;-79
2023/07/03 06:04:19;;;;;;;12.73;5.22;;;;;;;27.56;47.10;100716.00;4992106;28;20386;-81
2023/07/03 06:06:44;;;;;;;19.45;5.38;;;;;;;27.63;46.89;100726.56;4993177;28;20728;-77
2023/07/03 06:09:10;;;;;;;10.70;4.70;;;;;;;27.68;46.39;100726.53;4993050;28;20390;-78
2023/07/03 06:11:35;;;;;;;13.53;4.77;;;;;;;28.13;46.35;100735.44;4992342;28;20382;-77
2023/07/03 06:14:01;;;;;;;8.65;4.05;;;;;;;27.77;45.30;100732.19;4990835;28;20735;-76
2023/07/03 06:16:27;;;;;;;11.30;3.63;;;;;;;27.45;44.79;100738.94;4973676;28;20386;-77
2023/07/03 06:18:54;;;;;;;13.55;4.30;;;;;;;27.37;45.46;100737.66;4991716;28;20416;-78
2023/07/03 06:21:19;;;;;;;9.30;4.18;;;;;;;27.33;46.03;100739.28;4991965;28;20412;-78
2023/07/03 06:23:45;;;;;;;12.47;4.30;;;;;;;27.35;45.70;100742.56;4990645;28;20398;-77
2023/07/03 06:26:10;;;;;;;10.05;4.03;;;;;;;27.41;45.41;100746.88;4973887;28;20425;-75
2023/07/03 06:28:36;;;;;;;15.40;4.20;;;;;;;27.16;46.11;100741.56;5004205;28;20382;-79
2023/07/03 06:31:02;;;;;;;10.70;4.07;;;;;;;27.18;46.02;100742.88;4991201;28;20739;-80
2023/07/03 06:33:28;;;;;;;17.45;4.72;;;;;;;27.33;45.88;100739.28;4990607;28;20397;-78
2023/07/03 06:35:54;;;;;;;12.73;4.85;;;;;;;27.36;46.15;100738.72;4990102;28;20394;-79
2023/07/03 06:38:19;;;;;;;10.03;4.10;;;;;;;27.43;45.41;100738.44;4994359;28;20405;-83
2023/07/03 06:40:55;;;;;;;7.10;3.43;;;;;;;27.63;45.40;100737.47;4990778;28;20484;-77
2023/07/03 06:43:21;;;;;;;19.80;5.38;;;;;;;27.70;45.47;100740.69;4976155;28;20386;-80
2023/07/03 06:45:46;;;;;;;9.83;3.70;;;;;;;27.81;45.02;100739.47;4996544;28;20417;-80
2023/07/03 06:48:11;;;;;;;14.20;4.00;;;;;;;28.04;44.07;100742.59;4997313;28;20872;-81
2023/07/03 06:50:37;;;;;;;13.13;3.60;;;;;;;27.92;44.35;100737.53;4999359;28;20374;-79
2023/07/03 06:53:02;;;;;;;12.17;3.87;;;;;;;27.84;44.48;100738.94;4977101;28;20387;-79
2023/07/03 06:55:28;;;;;;;15.00;4.10;;;;;;;27.78;44.51;100740.03;4974685;28;20391;-80
2023/07/03 06:57:53;;;;;;;12.00;3.80;;;;;;;27.86;43.80;100741.38;4972949;28;20510;-75
2023/07/03 07:00:19;;;;;;;9.73;3.25;;;;;;;28.03;43.36;100754.59;4973073;28;20406;-77
2023/07/03 07:02:44;;;;;;;12.88;4.07;;;;;;;28.25;43.33;100750.56;4972935;28;20427;-76
2023/07/03 07:05:10;;;;;;;14.30;3.53;;;;;;;28.13;41.82;100749.06;4973392;28;20544;-77
2023/07/03 07:07:35;;;;;;;14.53;3.73;;;;;;;28.36;42.05;100760.25;4973231;28;20391;-77
2023/07/03 07:10:01;;;;;;;16.40;3.57;;;;;;;28.57;40.90;100750.00;4973994;28;20427;-76
2023/07/03 07:12:26;;;;;;;17.80;3.47;;;;;;;28.37;39.25;100746.34;4972520;28;20400;-76
2023/07/03 07:14:52;;;;;;;11.70;3.15;;;;;;;28.51;39.71;100740.22;4968488;28;20403;-76
2023/07/03 07:17:17;;;;;;;17.03;3.80;;;;;;;28.64;39.55;100745.00;4955245;28;20632;-77
2023/07/03 07:19:43;;;;;;;13.13;4.63;;;;;;;28.77;39.12;100763.41;4971694;28;20518;-76
2023/07/03 07:22:08;;;;;;;17.53;7.93;;;;;;;28.71;39.66;100758.28;4973294;28;20403;-77
2023/07/03 07:24:34;;;;;;;17.60;5.70;;;;;;;28.63;38.06;100748.00;4992153;28;20397;-77
2023/07/03 07:27:00;;;;;;;16.57;4.63;;;;;;;28.75;37.29;100751.16;4994008;28;20465;-77
2023/07/03 07:29:26;;;;;;;11.87;4.23;;;;;;;28.86;37.12;100760.00;4993397;28;20811;-76
2023/07/03 07:31:55;;;;;;;13.60;3.85;;;;;;;28.76;37.04;100755.50;4992350;28;20397;-77
2023/07/03 07:34:21;;;;;;;15.67;6.17;;;;;;;28.65;37.75;100762.16;4992849;28;20397;-76
2023/07/03 07:36:47;;;;;;;20.25;13.35;;;;;;;28.95;37.95;100759.06;4985724;28;20402;-76
2023/07/03 07:39:12;;;;;;;21.20;18.07;;;;;;;29.04;36.85;100766.63;4992209;28;20476;-76
2023/07/03 07:41:38;;;;;;;17.30;15.47;;;;;;;28.77;35.82;100770.75;4992832;28;20389;-77
2023/07/03 07:44:05;;;;;;;24.13;21.53;;;;;;;28.77;35.20;100770.75;4995147;28;20412;-77
2023/07/03 07:46:32;;;;;;;26.48;24.23;;;;;;;28.94;36.25;100753.94;4975974;28;20475;-76
2023/07/03 07:48:59;;;;;;;19.13;16.60;;;;;;;28.76;35.38;100769.97;4992209;28;20859;-76
2023/07/03 07:51:25;;;;;;;21.70;16.25;;;;;;;28.83;35.31;100758.69;4992823;28;20814;-76
2023/07/03 07:53:52;;;;;;;20.42;13.50;;;;;;;28.95;35.43;100767.25;4990980;28;20390;-77
2023/07/03 07:56:18;;;;;;;19.63;15.18;;;;;;;28.74;35.32;100769.44;5005475;28;20444;-77
2023/07/03 07:58:43;;;;;;;22.70;8.40;;;;;;;28.86;35.54;100754.56;4968986;28;20491;-76
2023/07/03 08:01:14;;;;;;;16.67;10.52;;;;;;;29.20;35.15;100759.06;4988409;28;20724;-77
2023/07/03 08:03:41;;;;;;;14.57;12.32;;;;;;;29.22;35.51;100752.19;4972748;28;20492;-76
2023/07/03 08:06:07;;;;;;;20.70;17.00;;;;;;;29.51;34.78;100745.75;4986217;28;20803;-76
2023/07/03 08:08:33;;;;;;;13.05;10.45;;;;;;;29.45;34.27;100747.75;4988561;28;20882;-77
2023/07/03 08:11:00;;;;;;;16.83;9.60;;;;;;;29.38;33.96;100768.38;4971389;28;20397;-77
2023/07/03 08:13:30;;;;;;;12.15;7.57;;;;;;;29.57;34.38;100760.16;4991184;28;20405;-77
2023/07/03 08:15:56;;;;;;;15.23;8.67;;;;;;;29.67;33.79;100757.28;4986629;28;20409;-77
2023/07/03 08:18:22;;;;;;;10.95;7.15;;;;;;;29.68;34.04;100747.97;4987712;28;20421;-77
2023/07/03 08:20:49;;;;;;;10.80;5.55;;;;;;;29.33;33.87;100764.63;4988260;28;20423;-76
2023/07/03 08:23:14;;;;;;;12.55;5.40;;;;;;;29.59;34.31;100747.84;4987420;28;20386;-76
2023/07/03 08:25:41;;;;;;;15.85;5.75;;;;;;;29.52;33.54;100748.19;4970439;28;20890;-76
2023/07/03 08:28:07;;;;;;;13.88;5.43;;;;;;;29.45;34.21;100764.16;4983866;28;20405;-77
2023/07/03 08:30:32;;;;;;;12.83;4.77;;;;;;;29.78;34.21;100755.22;4980191;28;20425;-79
2023/07/03 08:32:58;;;;;;;15.02;5.50;;;;;;;29.94;33.40;100748.38;4991309;28;20421;-82
2023/07/03 08:35:23;;;;;;;11.30;3.90;;;;;;;29.67;33.69;100738.94;4989452;28;20394;-77
2023/07/03 08:37:49;;;;;;;13.27;5.00;;;;;;;29.77;33.34;100764.53;4987160;28;20913;-75
2023/07/03 08:40:19;;;;;;;13.97;4.07;;;;;;;29.71;34.47;100756.38;4973984;28;20405;-76
2023/07/03 08:42:55;;;;;;;17.02;4.00;;;;;;;29.94;33.90;100762.03;4990973;28;20456;-76
2023/07/03 08:45:34;;;;;;;14.83;3.80;;;;;;;30.00;33.06;100766.31;4990116;28;20397;-76
2023/07/03 08:48:02;;;;;;;10.43;2.70;;;;;;;30.17;33.20;100754.00;4986344;28;20740;-77
2023/07/03 08:50:29;;;;;;;12.77;2.80;;;;;;;30.03;33.25;100762.16;4990128;28;20484;-76
2023/07/03 08:53:03;;;;;;;12.50;2.90;;;;;;;30.29;33.55;100759.81;4989708;28;20394;-77
2023/07/03 08:55:56;;;;;;;14.27;5.25;;;;;;;30.27;32.46;100772.94;4989552;28;20378;-77
2023/07/03 08:58:21;;;;;;;12.68;4.13;;;;;;;30.30;32.92;100770.41;4961331;28;20417;-76
2023/07/03 09:00:57;;;;;;;13.60;3.53;;;;;;;30.01;32.16;100764.41;4989273;28;20460;-77
2023/07/03 09:03:37;;;;;;;9.52;3.00;;;;;;;29.86;33.02;100795.53;4991504;28;20432;-77
2023/07/03 09:06:09;;;;;;;8.83;4.20;;;;;;;29.87;32.60;100772.53;4987085;28;20405;-77
2023/07/03 09:08:47;;;;;;;12.52;3.97;;;;;;;29.72;32.99;100785.31;4990890;28;20393;-75
2023/07/03 09:11:17;;;;;;;14.60;5.40;;;;;;;29.72;33.06;100768.91;4990172;28;20418;-76
2023/07/03 09:13:48;;;;;;;15.00;4.75;;;;;;;29.87;32.96;100775.28;4990347;28;20448;-76
2023/07/03 09:16:21;;;;;;;13.32;4.20;;;;;;;29.85;33.87;100786.50;4974187;28;20452;-76
2023/07/03 09:18:59;;;;;;;15.25;4.28;;;;;;;30.01;33.38;100775.34;4990892;28;20554;-75
2023/07/03 09:21:28;;;;;;;14.77;4.65;;;;;;;29.80;32.57;100774.84;4992539;28;20431;-76
2023/07/03 09:24:06;;;;;;;15.57;5.28;;;;;;;29.98;33.24;100776.75;4991546;28;20448;-77
2023/07/03 09:26:50;;;;;;;14.13;4.82;;;;;;;30.06;32.68;100776.06;5006639;28;20409;-77
2023/07/03 09:29:15;;;;;;;9.43;4.93;;;;;;;29.95;32.47;100777.34;4992155;28;20867;-77
2023/07/03 09:31:41;;;;;;;7.67;4.43;;;;;;;30.14;32.92;100769.06;4991765;28;20393;-76
2023/07/03 09:34:06;;;;;;;12.00;4.97;;;;;;;30.31;33.25;100771.25;4991078;28;20390;-76
2023/07/03 09:36:37;;;;;;;17.17;4.67;;;;;;;30.31;33.04;100763.03;4991837;28;20377;-78
2023/07/03 09:39:18;;;;;;;17.45;4.10;;;;;;;30.13;32.33;100759.28;4991346;28;20495;-77
2023/07/03 09:41:45;;;;;;;10.80;4.03;;;;;;;30.41;32.23;100778.47;5006670;28;20417;-77
2023/07/03 09:44:15;;;;;;;12.32;4.35;;;;;;;30.40;31.33;100777.66;4990220;28;20392;-76
2023/07/03 09:46:41;;;;;;;16.35;4.75;;;;;;;30.74;30.75;100781.13;4994696;28;20394;-76
2023/07/03 09:49:28;;;;;;;15.60;4.13;;;;;;;30.32;30.85;100772.84;4996224;28;20388;-76
2023/07/03 09:51:57;;;;;;;13.27;3.50;;;;;;;30.26;31.32;100771.34;4974272;28;20390;-75
2023/07/03 09:54:28;;;;;;;12.05;3.60;;;;;;;30.60;31.00;100770.19;4991642;28;20406;-77
2023/07/03 09:56:57;;;;;;;14.23;4.83;;;;;;;30.76;31.21;100762.50;4990023;28;20409;-76
2023/07/03 09:59:24;;;;;;;11.63;4.40;;;;;;;30.77;30.59;100761.34;4995012;28;20763;-75
2023/07/03 10:01:57;;;;;;;16.30;4.43;;;;;;;30.43;31.48;100766.13;4989785;28;20429;-76
2023/07/03 10:04:23;;;;;;;14.38;4.45;;;;;;;30.30;32.55;100769.63;4987653;28;20429;-77
2023/07/03 10:07:04;;;;;;;12.77;3.63;;;;;;;30.25;31.33;100769.69;4989221;28;20524;-76
2023/07/03 10:09:32;;;;;;;16.53;3.93;;;;;;;30.34;31.12;100753.44;4984040;28;20392;-76
2023/07/03 10:12:10;;;;;;;13.35;4.40;;;;;;;30.46;31.64;100767.44;4984830;28;20393;-76
2023/07/03 10:14:51;;;;;;;10.25;3.28;;;;;;;30.42;31.07;100769.16;4988436;28;20851;-76
2023/07/03 10:17:23;;;;;;;10.65;3.42;;;;;;;30.61;31.97;100763.59;4992248;28;20393;-76
2023/07/03 10:19:55;;;;;;;10.70;3.83;;;;;;;30.84;32.46;100750.81;4995039;28;20406;-77
2023/07/03 10:22:24;;;;;;;11.75;4.15;;;;;;;31.00;31.93;100746.66;4996287;28;20450;-76
2023/07/03 10:24:50;;;;;;;10.60;4.20;;;;;;;31.19;32.06;100773.09;4995500;28;20727;-76
2023/07/03 10:27:19;;;;;;;12.52;4.00;;;;;;;30.77;32.91;100747.66;4996929;28;20380;-75
2023/07/03 10:29:51;;;;;;;10.85;3.40;;;;;;;30.96;32.55;100745.66;4988602;28;20398;-76
2023/07/03 10:32:17;;;;;;;16.42;4.40;;;;;;;31.14;32.96;100751.31;4977599;28;20391;-75
2023/07/03 10:34:52;;;;;;;13.15;4.00;;;;;;;31.24;33.07;100762.00;4995116;28;20382;-76
2023/07/03 10:37:20;;;;;;;12.43;4.95;;;;;;;31.31;32.27;100742.44;4994306;28;20888;-76
2023/07/03 10:40:12;;;;;;;14.65;4.22;;;;;;;31.17;31.29;100748.75;4994856;28;20512;-77
2023/07/03 10:42:59;;;;;;;16.00;3.90;;;;;;;31.27;32.25;100733.22;4995185;28;20440;-76
2023/07/03 10:45:27;;;;;;;14.48;3.95;;;;;;;31.06;32.75;100748.19;4993680;28;20389;-76
2023/07/03 10:48:10;;;;;;;14.52;3.97;;;;;;;31.40;32.13;100730.44;4991747;28;20418;-76
2023/07/03 10:51:04;;;;;;;11.35;4.90;;;;;;;31.78;31.77;100743.78;4987573;28;20462;-76
2023/07/03 10:53:35;;;;;;;12.80;9.18;;;;;;;31.55;31.26;100728.47;4995308;28;20377;-77
2023/07/03 10:56:14;;;;;;;12.60;10.13;;;;;;;31.69;31.48;100748.38;4994746;28;20386;-76
2023/07/03 10:59:06;;;;;;;12.65;11.20;;;;;;;31.69;30.43;100740.16;4994012;28;20876;-75
2023/07/03 11:01:50;;;;;;;13.60;10.87;;;;;;;31.54;30.96;100744.09;4983570;28;20374;-76
2023/07/03 11:04:38;;;;;;;20.33;18.17;;;;;;;31.99;30.70;100746.00;4994734;28;20390;-76
2023/07/03 11:07:29;;;;;;;11.10;6.90;;;;;;;31.87;30.81;100735.59;4995030;28;20484;-76
2023/07/03 11:10:05;;;;;;;10.02;5.88;;;;;;;31.66;31.00;100743.53;4994256;28;20489;-77
2023/07/03 11:12:33;;;;;;;17.85;8.55;;;;;;;31.73;30.71;100737.59;4994462;28;20428;-76
2023/07/03 11:15:22;;;;;;;15.00;7.93;;;;;;;31.96;30.30;100741.13;4981437;28;20385;-76
2023/07/03 11:17:59;;;;;;;12.10;4.00;;;;;;;31.33;30.48;100742.91;4994060;28;20414;-77
2023/07/03 11:20:24;;;;;;;10.27;4.13;;;;;;;31.25;29.84;100734.31;4994042;28;20432;-76
2023/07/03 11:23:00;;;;;;;10.90;5.37;;;;;;;31.41;30.27;100736.72;4977396;28;20886;-76